Friday, July 25, 2014, 11:05 PM EDT

KLKU, Louisa, Louisa County Airport/freeman Field

Location: Louisa, VA, United States Lat: 38.01
Local Time: 11:05 PM EDT ( 3:05 GMT) Lon: -77.97
Time Zone: US/Eastern Elev: 492 ft

Show me the last for .
Show Decoded

2014-07-25 22:35 METAR KLKU 260235Z AUTO 15003KT 10SM CLR 21/17 A3001 RMK AO2 =
2014-07-25 22:15 METAR KLKU 260215Z AUTO 16003KT 7SM CLR 18/17 A3001 RMK AO2 =
2014-07-25 21:55 METAR KLKU 260155Z AUTO 00000KT 7SM CLR 18/17 A3002 RMK AO2 =
2014-07-25 21:35 METAR KLKU 260135Z AUTO 00000KT 10SM CLR 18/17 A3003 RMK AO2 =
2014-07-25 21:15 METAR KLKU 260115Z AUTO 00000KT 10SM CLR 18/17 A3002 RMK AO2 =
2014-07-25 20:55 METAR KLKU 260055Z AUTO 00000KT 10SM CLR 19/18 A3003 RMK AO2 =
2014-07-25 20:35 METAR KLKU 260035Z AUTO 00000KT 10SM CLR 20/19 A3003 RMK AO2 =
2014-07-25 20:15 METAR KLKU 260015Z AUTO 00000KT 10SM CLR 22/19 A3002 RMK AO2 =
2014-07-25 19:55 METAR KLKU 252355Z AUTO 00000KT 10SM CLR 23/19 A3002 RMK AO2 =
2014-07-25 19:15 METAR KLKU 252315Z AUTO 00000KT 10SM CLR 26/18 A3002 RMK AO2 =
2014-07-25 18:55 METAR KLKU 252255Z AUTO 00000KT 10SM CLR 27/17 A3001 RMK AO2 =
2014-07-25 18:35 METAR KLKU 252235Z AUTO 17003KT 10SM CLR 27/17 A3001 RMK AO2 =
2014-07-25 18:15 METAR KLKU 252215Z AUTO 00000KT 10SM CLR 27/16 A3001 RMK AO2 =
2014-07-25 17:55 METAR KLKU 252155Z AUTO 21003KT 10SM SCT050 27/16 A3001 RMK AO2 =
2014-07-25 17:35 METAR KLKU 252135Z AUTO 00000KT 10SM SCT050 27/16 A3001 RMK AO2 =
2014-07-25 17:15 METAR KLKU 252115Z AUTO 00000KT 10SM SCT050 28/16 A3000 RMK AO2 =
2014-07-25 16:55 METAR KLKU 252055Z AUTO 00000KT 10SM BKN050 27/16 A3001 RMK AO2 =
2014-07-25 16:35 METAR KLKU 252035Z AUTO 21003KT 10SM SCT060 27/17 A3000 RMK AO2 =
2014-07-25 16:15 METAR KLKU 252015Z AUTO 24003KT 10SM SCT046 28/17 A3000 RMK AO2 =
2014-07-25 15:55 METAR KLKU 251955Z AUTO 25003KT 10SM SCT046 27/16 A3000 RMK AO2 =
2014-07-25 15:35 METAR KLKU 251935Z AUTO 00000KT 10SM SCT048 BKN055 27/16 A3001 RMK AO2 =
2014-07-25 15:15 METAR KLKU 251915Z AUTO 20003KT 10SM SCT048 SCT055 27/16 A3002 RMK AO2 =
2014-07-25 14:35 METAR KLKU 251835Z AUTO 00000KT 10SM BKN048 26/15 A3004 RMK AO2 =
2014-07-25 14:15 METAR KLKU 251815Z AUTO 00000KT 10SM SCT048 27/16 A3004 RMK AO2 =
2014-07-25 13:55 METAR KLKU 251755Z AUTO 00000KT 10SM SCT048 26/15 A3005 RMK AO2 =
2014-07-25 13:35 METAR KLKU 251735Z AUTO 00000KT 10SM SCT045 26/15 A3005 RMK AO2 =
2014-07-25 13:15 METAR KLKU 251715Z AUTO 04004KT 10SM CLR 26/16 A3006 RMK AO2 =
2014-07-25 12:55 METAR KLKU 251655Z AUTO 00000KT 10SM CLR 25/14 A3007 RMK AO2 =
2014-07-25 12:35 METAR KLKU 251635Z AUTO 00000KT 10SM CLR 26/14 A3007 RMK AO2 =
2014-07-25 12:15 METAR KLKU 251615Z AUTO 00000KT 10SM CLR 24/13 A3007 RMK AO2 =
2014-07-25 11:55 METAR KLKU 251555Z AUTO 04003KT 10SM CLR 24/14 A3008 RMK AO2 =
2014-07-25 11:35 METAR KLKU 251535Z AUTO 02003KT 10SM CLR 24/15 A3009 RMK AO2 =
2014-07-25 11:15 METAR KLKU 251515Z AUTO 35004KT 10SM CLR 24/16 A3009 RMK AO2 =
2014-07-25 10:55 METAR KLKU 251455Z AUTO 05004KT 10SM CLR 23/16 A3009 RMK AO2 =
2014-07-25 10:35 METAR KLKU 251435Z AUTO 04004KT 10SM CLR 22/15 A3009 RMK AO2 =
2014-07-25 10:15 METAR KLKU 251415Z AUTO 04005KT 10SM CLR 22/15 A3009 RMK AO2 =
2014-07-25 09:55 METAR KLKU 251355Z AUTO 05005KT 10SM CLR 21/15 A3009 RMK AO2 =
2014-07-25 09:35 METAR KLKU 251335Z AUTO 03003KT 10SM CLR 21/16 A3009 RMK AO2 =
2014-07-25 09:15 METAR KLKU 251315Z AUTO 03003KT 10SM CLR 21/16 A3009 RMK AO2 =
2014-07-25 08:55 METAR KLKU 251255Z AUTO 02003KT 10SM CLR 20/16 A3009 RMK AO2 =
2014-07-25 08:35 METAR KLKU 251235Z AUTO 02004KT 10SM CLR 19/16 A3009 RMK AO2 =
2014-07-25 08:15 METAR KLKU 251215Z AUTO 02003KT 10SM CLR 18/16 A3008 RMK AO2 =
2014-07-25 07:55 METAR KLKU 251155Z AUTO 01005KT 10SM CLR 18/16 A3007 RMK AO2 =
2014-07-25 07:35 METAR KLKU 251135Z AUTO 00000KT 10SM CLR 17/16 A3007 RMK AO2 =
2014-07-25 07:15 METAR KLKU 251115Z AUTO 35003KT 10SM CLR 17/16 A3006 RMK AO2 =
2014-07-25 06:55 METAR KLKU 251055Z AUTO 00000KT 7SM CLR 16/16 A3005 RMK AO2 =
2014-07-25 06:35 METAR KLKU 251035Z AUTO 00000KT 2SM BR CLR 14/14 A3004 RMK AO2 =
2014-07-25 06:15 METAR KLKU 251015Z AUTO 00000KT 5SM BR CLR 16/15 A3003 RMK AO2 =
2014-07-25 05:55 METAR KLKU 250955Z AUTO 34003KT 10SM CLR 16/16 A3003 RMK AO2 =
2014-07-25 05:35 METAR KLKU 250935Z AUTO 35003KT 10SM CLR 17/16 A3002 RMK AO2 =
2014-07-25 05:15 METAR KLKU 250915Z AUTO 34004KT 10SM CLR 17/16 A3001 RMK AO2 =
2014-07-25 04:55 METAR KLKU 250855Z AUTO 36003KT 7SM CLR 16/15 A3000 RMK AO2 =
2014-07-25 04:35 METAR KLKU 250835Z AUTO 00000KT 7SM CLR 16/16 A3000 RMK AO2 =
2014-07-25 04:15 METAR KLKU 250815Z AUTO 33003KT 3SM BR CLR 15/14 A3000 RMK AO2 =
2014-07-25 03:55 METAR KLKU 250755Z AUTO 33003KT 1/2SM FG VV005 16/15 A2999 RMK AO2 =
2014-07-25 03:35 METAR KLKU 250735Z AUTO 00000KT 3/4SM BR VV005 16/15 A2999 RMK AO2 =
2014-07-25 03:15 METAR KLKU 250715Z AUTO 32003KT 1SM BR VV007 16/16 A2999 RMK AO2 VIS 1/2V5 =
2014-07-25 02:55 METAR KLKU 250655Z AUTO 00000KT 2 1/2SM BR CLR 16/15 A2998 RMK AO2 =
2014-07-25 02:35 METAR KLKU 250635Z AUTO 00000KT 4SM BR CLR 17/16 A2999 RMK AO2 =
2014-07-25 02:15 METAR KLKU 250615Z AUTO 31003KT 5SM BR CLR 18/17 A2999 RMK AO2 =
2014-07-25 01:55 METAR KLKU 250555Z AUTO 00000KT 1 1/4SM BR VV007 17/17 A2999 RMK AO2 VIS 1/2V2
                 1/2 =
2014-07-25 01:35 METAR KLKU 250535Z AUTO 00000KT 1/2SM FG BKN001 17/17 A2999 RMK AO2 =
2014-07-25 01:15 METAR KLKU 250515Z AUTO 00000KT 1/2SM FG VV005 17/17 A2999 RMK AO2 =
2014-07-25 00:55 METAR KLKU 250455Z AUTO 00000KT 3/4SM BR BKN001 17/17 A2998 RMK AO2 =
2014-07-25 00:35 METAR KLKU 250435Z AUTO 00000KT 1/2SM FG OVC001 17/16 A2998 RMK AO2 =
2014-07-25 00:15 METAR KLKU 250415Z AUTO 00000KT 1/2SM FG BKN001 17/16 A2996 RMK AO2 =
2014-07-24 23:55 METAR KLKU 250355Z AUTO 00000KT 1/2SM FG BKN001 16/16 A2996 RMK AO2 =
2014-07-24 23:35 METAR KLKU 250335Z AUTO 00000KT 1/4SM FG 17/17 A2996 RMK AO2 =
2014-07-24 23:15 METAR KLKU 250315Z AUTO 00000KT M1/4SM FG OVC001 17/17 A2996 RMK AO2 =

Support USWX by starting your Amazon purchase here.